sensor_id;sensor_type;location;lat;lon;timestamp;P1;durP1;ratioP1;P2;durP2;ratioP2
15383;SDS011;7790;53.022;12.968;2023-03-07T00:03:23;0.67;;;0.67;;
15383;SDS011;7790;53.022;12.968;2023-03-07T00:07:24;0.90;;;0.90;;
15383;SDS011;7790;53.022;12.968;2023-03-07T00:11:25;0.63;;;0.63;;
15383;SDS011;7790;53.022;12.968;2023-03-07T00:15:26;0.70;;;0.70;;
15383;SDS011;7790;53.022;12.968;2023-03-07T00:19:27;0.60;;;0.60;;
15383;SDS011;7790;53.022;12.968;2023-03-07T00:23:28;0.60;;;0.60;;
15383;SDS011;7790;53.022;12.968;2023-03-07T00:27:30;0.57;;;0.57;;
15383;SDS011;7790;53.022;12.968;2023-03-07T00:31:31;0.53;;;0.47;;
15383;SDS011;7790;53.022;12.968;2023-03-07T00:35:32;1.47;;;1.00;;
15383;SDS011;7790;53.022;12.968;2023-03-07T00:39:32;0.50;;;0.50;;
15383;SDS011;7790;53.022;12.968;2023-03-07T00:43:33;0.67;;;0.63;;
15383;SDS011;7790;53.022;12.968;2023-03-07T00:47:35;0.60;;;0.60;;
15383;SDS011;7790;53.022;12.968;2023-03-07T00:51:36;0.63;;;0.60;;
15383;SDS011;7790;53.022;12.968;2023-03-07T00:55:37;0.87;;;0.87;;
15383;SDS011;7790;53.022;12.968;2023-03-07T00:59:38;0.73;;;0.70;;
15383;SDS011;7790;53.022;12.968;2023-03-07T01:03:39;0.70;;;0.70;;
15383;SDS011;7790;53.022;12.968;2023-03-07T01:07:41;0.80;;;0.80;;
15383;SDS011;7790;53.022;12.968;2023-03-07T01:11:42;0.70;;;0.70;;
15383;SDS011;7790;53.022;12.968;2023-03-07T01:15:43;1.13;;;0.70;;
15383;SDS011;7790;53.022;12.968;2023-03-07T01:19:44;0.73;;;0.73;;
15383;SDS011;7790;53.022;12.968;2023-03-07T01:23:45;0.37;;;0.37;;
15383;SDS011;7790;53.022;12.968;2023-03-07T01:27:46;0.70;;;0.70;;
15383;SDS011;7790;53.022;12.968;2023-03-07T01:31:47;0.63;;;0.63;;
15383;SDS011;7790;53.022;12.968;2023-03-07T01:35:48;0.80;;;0.80;;
15383;SDS011;7790;53.022;12.968;2023-03-07T01:39:50;0.70;;;0.70;;
15383;SDS011;7790;53.022;12.968;2023-03-07T01:43:52;0.53;;;0.53;;
15383;SDS011;7790;53.022;12.968;2023-03-07T01:47:55;0.73;;;0.73;;
15383;SDS011;7790;53.022;12.968;2023-03-07T01:56:19;0.70;;;0.70;;
15383;SDS011;7790;53.022;12.968;2023-03-07T02:00:21;0.60;;;0.60;;
15383;SDS011;7790;53.022;12.968;2023-03-07T02:04:30;0.77;;;0.77;;
15383;SDS011;7790;53.022;12.968;2023-03-07T02:08:40;1.70;;;0.90;;
15383;SDS011;7790;53.022;12.968;2023-03-07T02:12:44;0.83;;;0.83;;
15383;SDS011;7790;53.022;12.968;2023-03-07T02:16:45;0.80;;;0.80;;
15383;SDS011;7790;53.022;12.968;2023-03-07T02:20:59;0.90;;;0.90;;
15383;SDS011;7790;53.022;12.968;2023-03-07T02:25:18;1.00;;;1.00;;
15383;SDS011;7790;53.022;12.968;2023-03-07T02:29:19;1.00;;;1.00;;
15383;SDS011;7790;53.022;12.968;2023-03-07T02:33:21;1.27;;;1.17;;
15383;SDS011;7790;53.022;12.968;2023-03-07T02:37:32;1.13;;;1.03;;
15383;SDS011;7790;53.022;12.968;2023-03-07T02:41:38;1.00;;;1.00;;
15383;SDS011;7790;53.022;12.968;2023-03-07T02:45:47;1.13;;;1.13;;
15383;SDS011;7790;53.022;12.968;2023-03-07T02:49:48;1.30;;;1.30;;
15383;SDS011;7790;53.022;12.968;2023-03-07T02:53:49;1.00;;;1.00;;
15383;SDS011;7790;53.022;12.968;2023-03-07T02:57:51;1.20;;;1.20;;
15383;SDS011;7790;53.022;12.968;2023-03-07T03:01:53;1.27;;;1.27;;
15383;SDS011;7790;53.022;12.968;2023-03-07T03:05:54;1.50;;;1.40;;
15383;SDS011;7790;53.022;12.968;2023-03-07T03:09:55;1.00;;;1.00;;
15383;SDS011;7790;53.022;12.968;2023-03-07T03:13:57;1.23;;;1.23;;
15383;SDS011;7790;53.022;12.968;2023-03-07T03:17:58;1.60;;;1.50;;
15383;SDS011;7790;53.022;12.968;2023-03-07T03:21:59;1.70;;;1.60;;
15383;SDS011;7790;53.022;12.968;2023-03-07T03:26:05;1.90;;;1.80;;
15383;SDS011;7790;53.022;12.968;2023-03-07T03:30:09;1.97;;;1.70;;
15383;SDS011;7790;53.022;12.968;2023-03-07T03:34:13;1.87;;;1.77;;
15383;SDS011;7790;53.022;12.968;2023-03-07T03:38:14;1.60;;;1.50;;
15383;SDS011;7790;53.022;12.968;2023-03-07T03:42:15;2.00;;;1.90;;
15383;SDS011;7790;53.022;12.968;2023-03-07T03:46:17;2.07;;;1.97;;
15383;SDS011;7790;53.022;12.968;2023-03-07T03:50:19;1.90;;;1.80;;
15383;SDS011;7790;53.022;12.968;2023-03-07T03:54:20;1.73;;;1.63;;
15383;SDS011;7790;53.022;12.968;2023-03-07T03:58:21;2.20;;;2.07;;
15383;SDS011;7790;53.022;12.968;2023-03-07T04:02:22;1.93;;;1.83;;
15383;SDS011;7790;53.022;12.968;2023-03-07T04:06:25;2.40;;;2.20;;
15383;SDS011;7790;53.022;12.968;2023-03-07T04:10:29;2.07;;;1.97;;
15383;SDS011;7790;53.022;12.968;2023-03-07T04:14:29;2.17;;;2.07;;
15383;SDS011;7790;53.022;12.968;2023-03-07T04:18:31;2.50;;;2.30;;
15383;SDS011;7790;53.022;12.968;2023-03-07T04:22:33;2.90;;;2.03;;
15383;SDS011;7790;53.022;12.968;2023-03-07T04:26:35;2.00;;;1.90;;
15383;SDS011;7790;53.022;12.968;2023-03-07T04:30:36;1.90;;;1.80;;
15383;SDS011;7790;53.022;12.968;2023-03-07T04:34:37;2.07;;;1.90;;
15383;SDS011;7790;53.022;12.968;2023-03-07T04:38:38;2.40;;;2.30;;
15383;SDS011;7790;53.022;12.968;2023-03-07T04:42:40;3.53;;;2.10;;
15383;SDS011;7790;53.022;12.968;2023-03-07T04:46:41;2.03;;;1.93;;
15383;SDS011;7790;53.022;12.968;2023-03-07T04:50:42;2.43;;;2.30;;
15383;SDS011;7790;53.022;12.968;2023-03-07T04:54:43;2.50;;;2.30;;
15383;SDS011;7790;53.022;12.968;2023-03-07T04:58:44;2.20;;;2.10;;
15383;SDS011;7790;53.022;12.968;2023-03-07T05:02:46;2.47;;;2.27;;
15383;SDS011;7790;53.022;12.968;2023-03-07T05:06:49;2.13;;;2.03;;
15383;SDS011;7790;53.022;12.968;2023-03-07T05:10:51;2.00;;;1.90;;
15383;SDS011;7790;53.022;12.968;2023-03-07T05:14:51;2.17;;;2.03;;
15383;SDS011;7790;53.022;12.968;2023-03-07T05:18:52;2.00;;;1.90;;
15383;SDS011;7790;53.022;12.968;2023-03-07T05:22:54;1.97;;;1.87;;
15383;SDS011;7790;53.022;12.968;2023-03-07T05:26:55;1.70;;;1.60;;
15383;SDS011;7790;53.022;12.968;2023-03-07T05:30:56;1.70;;;1.60;;
15383;SDS011;7790;53.022;12.968;2023-03-07T05:34:57;1.77;;;1.67;;
15383;SDS011;7790;53.022;12.968;2023-03-07T05:38:59;1.70;;;1.60;;
15383;SDS011;7790;53.022;12.968;2023-03-07T05:42:59;1.97;;;1.87;;
15383;SDS011;7790;53.022;12.968;2023-03-07T05:47:01;2.07;;;1.70;;
15383;SDS011;7790;53.022;12.968;2023-03-07T05:51:02;1.70;;;1.60;;
15383;SDS011;7790;53.022;12.968;2023-03-07T05:55:04;1.70;;;1.60;;
15383;SDS011;7790;53.022;12.968;2023-03-07T05:59:06;1.87;;;1.77;;
15383;SDS011;7790;53.022;12.968;2023-03-07T06:03:09;2.10;;;1.60;;
15383;SDS011;7790;53.022;12.968;2023-03-07T06:07:11;1.93;;;1.57;;
15383;SDS011;7790;53.022;12.968;2023-03-07T06:11:12;1.60;;;1.50;;
15383;SDS011;7790;53.022;12.968;2023-03-07T06:15:13;1.50;;;1.40;;
15383;SDS011;7790;53.022;12.968;2023-03-07T06:19:14;2.03;;;1.40;;
15383;SDS011;7790;53.022;12.968;2023-03-07T06:23:15;15.60;;;2.63;;
15383;SDS011;7790;53.022;12.968;2023-03-07T06:27:16;9.03;;;2.83;;
15383;SDS011;7790;53.022;12.968;2023-03-07T06:31:18;10.33;;;3.30;;
15383;SDS011;7790;53.022;12.968;2023-03-07T06:35:19;4.10;;;2.80;;
15383;SDS011;7790;53.022;12.968;2023-03-07T06:39:23;4.53;;;2.30;;
15383;SDS011;7790;53.022;12.968;2023-03-07T06:43:27;4.83;;;2.43;;
15383;SDS011;7790;53.022;12.968;2023-03-07T06:47:28;4.33;;;2.70;;
15383;SDS011;7790;53.022;12.968;2023-03-07T06:51:30;3.23;;;2.13;;
15383;SDS011;7790;53.022;12.968;2023-03-07T06:55:31;4.83;;;2.50;;
15383;SDS011;7790;53.022;12.968;2023-03-07T06:59:32;5.07;;;2.23;;
15383;SDS011;7790;53.022;12.968;2023-03-07T07:03:34;4.03;;;2.30;;
15383;SDS011;7790;53.022;12.968;2023-03-07T07:07:35;4.13;;;2.20;;
15383;SDS011;7790;53.022;12.968;2023-03-07T07:11:35;4.67;;;2.10;;
15383;SDS011;7790;53.022;12.968;2023-03-07T07:15:38;2.90;;;2.03;;
15383;SDS011;7790;53.022;12.968;2023-03-07T07:19:39;6.50;;;2.20;;
15383;SDS011;7790;53.022;12.968;2023-03-07T07:23:40;4.43;;;2.00;;
15383;SDS011;7790;53.022;12.968;2023-03-07T07:27:41;2.37;;;1.80;;
15383;SDS011;7790;53.022;12.968;2023-03-07T07:31:42;2.90;;;1.70;;
15383;SDS011;7790;53.022;12.968;2023-03-07T07:35:44;2.53;;;1.87;;
15383;SDS011;7790;53.022;12.968;2023-03-07T07:39:47;2.37;;;1.67;;
15383;SDS011;7790;53.022;12.968;2023-03-07T07:43:52;3.53;;;1.90;;
15383;SDS011;7790;53.022;12.968;2023-03-07T07:48:01;2.33;;;1.60;;
15383;SDS011;7790;53.022;12.968;2023-03-07T07:52:02;2.53;;;1.87;;
15383;SDS011;7790;53.022;12.968;2023-03-07T07:56:04;2.27;;;1.40;;
15383;SDS011;7790;53.022;12.968;2023-03-07T08:00:05;2.00;;;1.50;;
15383;SDS011;7790;53.022;12.968;2023-03-07T08:04:12;1.87;;;1.73;;
15383;SDS011;7790;53.022;12.968;2023-03-07T08:08:13;1.80;;;1.40;;
15383;SDS011;7790;53.022;12.968;2023-03-07T08:12:15;3.17;;;1.43;;
15383;SDS011;7790;53.022;12.968;2023-03-07T08:16:17;1.60;;;1.50;;
15383;SDS011;7790;53.022;12.968;2023-03-07T08:20:20;1.43;;;1.30;;
15383;SDS011;7790;53.022;12.968;2023-03-07T08:24:22;2.27;;;1.50;;
15383;SDS011;7790;53.022;12.968;2023-03-07T08:28:23;1.73;;;1.20;;
15383;SDS011;7790;53.022;12.968;2023-03-07T08:32:24;2.20;;;1.43;;
15383;SDS011;7790;53.022;12.968;2023-03-07T08:36:25;1.50;;;1.40;;
15383;SDS011;7790;53.022;12.968;2023-03-07T08:40:27;1.50;;;1.30;;
15383;SDS011;7790;53.022;12.968;2023-03-07T08:44:29;1.10;;;1.10;;
15383;SDS011;7790;53.022;12.968;2023-03-07T08:48:30;1.20;;;1.10;;
15383;SDS011;7790;53.022;12.968;2023-03-07T08:52:31;1.23;;;1.10;;
15383;SDS011;7790;53.022;12.968;2023-03-07T08:56:32;1.27;;;1.10;;
15383;SDS011;7790;53.022;12.968;2023-03-07T09:00:33;0.90;;;0.90;;
15383;SDS011;7790;53.022;12.968;2023-03-07T09:04:33;1.00;;;0.90;;
15383;SDS011;7790;53.022;12.968;2023-03-07T09:08:34;1.57;;;0.90;;
15383;SDS011;7790;53.022;12.968;2023-03-07T09:12:35;0.80;;;0.80;;
15383;SDS011;7790;53.022;12.968;2023-03-07T09:16:36;0.90;;;0.80;;
15383;SDS011;7790;53.022;12.968;2023-03-07T09:20:37;1.70;;;0.77;;
15383;SDS011;7790;53.022;12.968;2023-03-07T09:24:38;0.80;;;0.80;;
15383;SDS011;7790;53.022;12.968;2023-03-07T09:28:38;0.87;;;0.77;;
15383;SDS011;7790;53.022;12.968;2023-03-07T09:32:39;1.07;;;0.80;;
15383;SDS011;7790;53.022;12.968;2023-03-07T09:36:41;1.43;;;0.90;;
15383;SDS011;7790;53.022;12.968;2023-03-07T09:40:42;0.70;;;0.70;;
15383;SDS011;7790;53.022;12.968;2023-03-07T09:57:55;1.27;;;0.60;;
15383;SDS011;7790;53.022;12.968;2023-03-07T10:06:39;0.40;;;0.40;;
15383;SDS011;7790;53.022;12.968;2023-03-07T10:19:43;0.40;;;0.40;;
15383;SDS011;7790;53.022;12.968;2023-03-07T10:28:31;0.50;;;0.50;;
15383;SDS011;7790;53.022;12.968;2023-03-07T10:32:47;0.57;;;0.43;;
15383;SDS011;7790;53.022;12.968;2023-03-07T10:41:18;0.43;;;0.43;;
15383;SDS011;7790;53.022;12.968;2023-03-07T10:45:21;0.30;;;0.30;;
15383;SDS011;7790;53.022;12.968;2023-03-07T10:49:24;0.47;;;0.40;;
15383;SDS011;7790;53.022;12.968;2023-03-07T10:53:32;0.30;;;0.30;;
15383;SDS011;7790;53.022;12.968;2023-03-07T10:57:35;4.17;;;0.80;;
15383;SDS011;7790;53.022;12.968;2023-03-07T11:01:36;1.73;;;0.60;;
15383;SDS011;7790;53.022;12.968;2023-03-07T11:05:50;2.87;;;0.80;;
15383;SDS011;7790;53.022;12.968;2023-03-07T11:09:51;1.57;;;1.03;;
15383;SDS011;7790;53.022;12.968;2023-03-07T11:14:10;1.77;;;0.77;;
15383;SDS011;7790;53.022;12.968;2023-03-07T11:22:37;2.17;;;0.80;;
15383;SDS011;7790;53.022;12.968;2023-03-07T11:26:38;0.87;;;0.60;;
15383;SDS011;7790;53.022;12.968;2023-03-07T11:30:45;0.50;;;0.47;;
15383;SDS011;7790;53.022;12.968;2023-03-07T11:35:05;2.10;;;0.50;;
15383;SDS011;7790;53.022;12.968;2023-03-07T11:39:15;1.17;;;0.67;;
15383;SDS011;7790;53.022;12.968;2023-03-07T11:43:35;0.50;;;0.50;;
15383;SDS011;7790;53.022;12.968;2023-03-07T12:01:50;0.40;;;0.40;;
15383;SDS011;7790;53.022;12.968;2023-03-07T12:05:58;0.40;;;0.33;;
15383;SDS011;7790;53.022;12.968;2023-03-07T12:18:38;5.07;;;1.40;;
15383;SDS011;7790;53.022;12.968;2023-03-07T12:27:25;0.77;;;0.50;;
15383;SDS011;7790;53.022;12.968;2023-03-07T12:31:42;2.60;;;1.10;;
15383;SDS011;7790;53.022;12.968;2023-03-07T12:35:48;2.50;;;0.90;;
15383;SDS011;7790;53.022;12.968;2023-03-07T12:39:55;6.47;;;0.77;;
15383;SDS011;7790;53.022;12.968;2023-03-07T12:48:45;2.67;;;0.80;;
15383;SDS011;7790;53.022;12.968;2023-03-07T12:53:29;2.77;;;1.10;;
15383;SDS011;7790;53.022;12.968;2023-03-07T12:57:39;3.37;;;1.00;;
15383;SDS011;7790;53.022;12.968;2023-03-07T13:01:45;3.07;;;0.83;;
15383;SDS011;7790;53.022;12.968;2023-03-07T13:05:51;1.80;;;0.83;;
15383;SDS011;7790;53.022;12.968;2023-03-07T13:09:53;1.43;;;0.50;;
15383;SDS011;7790;53.022;12.968;2023-03-07T13:13:57;1.00;;;0.80;;
15383;SDS011;7790;53.022;12.968;2023-03-07T13:17:59;3.27;;;0.60;;
15383;SDS011;7790;53.022;12.968;2023-03-07T13:26:21;3.83;;;0.90;;
15383;SDS011;7790;53.022;12.968;2023-03-07T13:30:24;4.80;;;0.93;;
15383;SDS011;7790;53.022;12.968;2023-03-07T13:34:41;0.60;;;0.50;;
15383;SDS011;7790;53.022;12.968;2023-03-07T13:38:46;1.90;;;0.60;;
15383;SDS011;7790;53.022;12.968;2023-03-07T13:42:47;5.17;;;0.70;;
15383;SDS011;7790;53.022;12.968;2023-03-07T13:46:49;5.27;;;0.73;;
15383;SDS011;7790;53.022;12.968;2023-03-07T13:54:53;1.33;;;0.70;;
15383;SDS011;7790;53.022;12.968;2023-03-07T13:58:58;2.67;;;0.90;;
15383;SDS011;7790;53.022;12.968;2023-03-07T14:03:13;1.10;;;0.63;;
15383;SDS011;7790;53.022;12.968;2023-03-07T14:19:52;1.80;;;0.80;;
15383;SDS011;7790;53.022;12.968;2023-03-07T14:28:28;0.67;;;0.50;;
15383;SDS011;7790;53.022;12.968;2023-03-07T14:32:29;0.93;;;0.60;;
15383;SDS011;7790;53.022;12.968;2023-03-07T14:36:31;3.63;;;0.50;;
15383;SDS011;7790;53.022;12.968;2023-03-07T14:40:35;1.10;;;0.60;;
15383;SDS011;7790;53.022;12.968;2023-03-07T14:44:50;1.03;;;0.60;;
15383;SDS011;7790;53.022;12.968;2023-03-07T14:53:24;6.17;;;1.60;;
15383;SDS011;7790;53.022;12.968;2023-03-07T14:57:35;3.87;;;0.83;;
15383;SDS011;7790;53.022;12.968;2023-03-07T15:01:39;3.53;;;0.63;;
15383;SDS011;7790;53.022;12.968;2023-03-07T15:05:46;1.97;;;0.70;;
15383;SDS011;7790;53.022;12.968;2023-03-07T15:09:54;3.03;;;0.60;;
15383;SDS011;7790;53.022;12.968;2023-03-07T15:18:13;2.77;;;0.80;;
15383;SDS011;7790;53.022;12.968;2023-03-07T15:22:31;1.90;;;0.50;;
15383;SDS011;7790;53.022;12.968;2023-03-07T15:26:39;2.87;;;0.90;;
15383;SDS011;7790;53.022;12.968;2023-03-07T15:30:46;2.20;;;0.97;;
15383;SDS011;7790;53.022;12.968;2023-03-07T15:34:57;4.07;;;0.70;;
15383;SDS011;7790;53.022;12.968;2023-03-07T15:39:20;4.13;;;0.80;;
15383;SDS011;7790;53.022;12.968;2023-03-07T15:43:33;1.23;;;0.70;;
15383;SDS011;7790;53.022;12.968;2023-03-07T15:47:35;2.10;;;0.90;;
15383;SDS011;7790;53.022;12.968;2023-03-07T15:51:36;2.07;;;0.73;;
15383;SDS011;7790;53.022;12.968;2023-03-07T15:55:37;8.63;;;1.80;;
15383;SDS011;7790;53.022;12.968;2023-03-07T15:59:46;3.60;;;1.07;;
15383;SDS011;7790;53.022;12.968;2023-03-07T16:03:54;1.80;;;1.00;;
15383;SDS011;7790;53.022;12.968;2023-03-07T16:07:56;4.83;;;1.00;;
15383;SDS011;7790;53.022;12.968;2023-03-07T16:11:57;1.90;;;0.60;;
15383;SDS011;7790;53.022;12.968;2023-03-07T16:15:59;3.00;;;1.00;;
15383;SDS011;7790;53.022;12.968;2023-03-07T16:20:15;3.17;;;1.00;;
15383;SDS011;7790;53.022;12.968;2023-03-07T16:24:18;2.93;;;0.73;;
15383;SDS011;7790;53.022;12.968;2023-03-07T16:28:19;5.77;;;1.33;;
15383;SDS011;7790;53.022;12.968;2023-03-07T16:32:20;1.83;;;0.60;;
15383;SDS011;7790;53.022;12.968;2023-03-07T16:36:22;2.00;;;1.03;;
15383;SDS011;7790;53.022;12.968;2023-03-07T16:40:22;2.53;;;1.00;;
15383;SDS011;7790;53.022;12.968;2023-03-07T16:44:25;2.57;;;1.10;;
15383;SDS011;7790;53.022;12.968;2023-03-07T16:48:27;3.33;;;0.93;;
15383;SDS011;7790;53.022;12.968;2023-03-07T16:52:28;3.83;;;1.20;;
15383;SDS011;7790;53.022;12.968;2023-03-07T16:56:34;3.70;;;1.10;;
15383;SDS011;7790;53.022;12.968;2023-03-07T17:00:37;7.40;;;1.50;;
15383;SDS011;7790;53.022;12.968;2023-03-07T17:04:38;9.30;;;1.23;;
15383;SDS011;7790;53.022;12.968;2023-03-07T17:08:39;4.47;;;1.20;;
15383;SDS011;7790;53.022;12.968;2023-03-07T17:12:40;2.80;;;1.10;;
15383;SDS011;7790;53.022;12.968;2023-03-07T17:16:43;5.70;;;1.10;;
15383;SDS011;7790;53.022;12.968;2023-03-07T17:20:46;3.93;;;1.20;;
15383;SDS011;7790;53.022;12.968;2023-03-07T17:24:47;2.90;;;0.80;;
15383;SDS011;7790;53.022;12.968;2023-03-07T17:28:49;3.53;;;1.33;;
15383;SDS011;7790;53.022;12.968;2023-03-07T17:32:50;2.47;;;1.13;;
15383;SDS011;7790;53.022;12.968;2023-03-07T17:36:51;3.80;;;1.40;;
15383;SDS011;7790;53.022;12.968;2023-03-07T17:40:53;5.70;;;2.73;;
15383;SDS011;7790;53.022;12.968;2023-03-07T17:44:55;5.83;;;2.50;;
15383;SDS011;7790;53.022;12.968;2023-03-07T17:48:55;3.87;;;2.33;;
15383;SDS011;7790;53.022;12.968;2023-03-07T17:52:56;4.47;;;2.50;;
15383;SDS011;7790;53.022;12.968;2023-03-07T17:56:57;7.70;;;5.03;;
15383;SDS011;7790;53.022;12.968;2023-03-07T18:00:58;12.40;;;7.53;;
15383;SDS011;7790;53.022;12.968;2023-03-07T18:04:59;13.43;;;7.63;;
15383;SDS011;7790;53.022;12.968;2023-03-07T18:09:00;17.23;;;8.93;;
15383;SDS011;7790;53.022;12.968;2023-03-07T18:13:01;61.13;;;38.57;;
15383;SDS011;7790;53.022;12.968;2023-03-07T18:17:02;152.80;;;94.73;;
15383;SDS011;7790;53.022;12.968;2023-03-07T18:21:04;160.23;;;104.20;;
15383;SDS011;7790;53.022;12.968;2023-03-07T18:25:13;164.37;;;106.27;;
15383;SDS011;7790;53.022;12.968;2023-03-07T18:29:15;159.10;;;104.57;;
15383;SDS011;7790;53.022;12.968;2023-03-07T18:33:16;166.17;;;109.40;;
15383;SDS011;7790;53.022;12.968;2023-03-07T18:37:17;155.27;;;103.53;;
15383;SDS011;7790;53.022;12.968;2023-03-07T18:41:19;154.63;;;100.57;;
15383;SDS011;7790;53.022;12.968;2023-03-07T18:45:21;144.80;;;95.10;;
15383;SDS011;7790;53.022;12.968;2023-03-07T18:49:23;140.37;;;90.90;;
15383;SDS011;7790;53.022;12.968;2023-03-07T18:53:24;132.73;;;85.93;;
15383;SDS011;7790;53.022;12.968;2023-03-07T18:57:25;123.63;;;80.57;;
15383;SDS011;7790;53.022;12.968;2023-03-07T19:01:35;121.27;;;76.63;;
15383;SDS011;7790;53.022;12.968;2023-03-07T19:05:40;109.80;;;70.10;;
15383;SDS011;7790;53.022;12.968;2023-03-07T19:09:43;106.23;;;68.33;;
15383;SDS011;7790;53.022;12.968;2023-03-07T19:13:45;102.13;;;63.77;;
15383;SDS011;7790;53.022;12.968;2023-03-07T19:17:46;91.73;;;61.17;;
15383;SDS011;7790;53.022;12.968;2023-03-07T19:21:47;86.50;;;56.40;;
15383;SDS011;7790;53.022;12.968;2023-03-07T19:25:48;86.70;;;54.17;;
15383;SDS011;7790;53.022;12.968;2023-03-07T19:29:49;71.83;;;48.60;;
15383;SDS011;7790;53.022;12.968;2023-03-07T19:33:50;74.90;;;48.07;;
15383;SDS011;7790;53.022;12.968;2023-03-07T19:37:51;75.93;;;47.03;;
15383;SDS011;7790;53.022;12.968;2023-03-07T19:41:52;61.37;;;40.67;;
15383;SDS011;7790;53.022;12.968;2023-03-07T19:45:54;65.60;;;42.10;;
15383;SDS011;7790;53.022;12.968;2023-03-07T19:49:55;66.07;;;42.13;;
15383;SDS011;7790;53.022;12.968;2023-03-07T19:53:56;60.50;;;39.13;;
15383;SDS011;7790;53.022;12.968;2023-03-07T19:57:58;60.87;;;39.77;;
15383;SDS011;7790;53.022;12.968;2023-03-07T20:01:58;56.43;;;38.30;;
15383;SDS011;7790;53.022;12.968;2023-03-07T20:06:00;57.43;;;36.70;;
15383;SDS011;7790;53.022;12.968;2023-03-07T20:10:02;53.00;;;35.40;;
15383;SDS011;7790;53.022;12.968;2023-03-07T20:14:04;50.17;;;33.10;;
15383;SDS011;7790;53.022;12.968;2023-03-07T20:18:04;50.00;;;31.07;;
15383;SDS011;7790;53.022;12.968;2023-03-07T20:22:05;42.73;;;28.50;;
15383;SDS011;7790;53.022;12.968;2023-03-07T20:26:07;40.53;;;26.87;;
15383;SDS011;7790;53.022;12.968;2023-03-07T20:30:10;39.90;;;26.13;;
15383;SDS011;7790;53.022;12.968;2023-03-07T20:34:11;39.10;;;25.87;;
15383;SDS011;7790;53.022;12.968;2023-03-07T20:38:12;36.70;;;23.80;;
15383;SDS011;7790;53.022;12.968;2023-03-07T20:42:13;36.70;;;23.33;;
15383;SDS011;7790;53.022;12.968;2023-03-07T20:46:14;32.20;;;21.87;;
15383;SDS011;7790;53.022;12.968;2023-03-07T20:50:16;31.20;;;20.57;;
15383;SDS011;7790;53.022;12.968;2023-03-07T20:54:17;28.37;;;19.77;;
15383;SDS011;7790;53.022;12.968;2023-03-07T20:58:18;29.83;;;19.03;;
15383;SDS011;7790;53.022;12.968;2023-03-07T21:02:19;23.83;;;18.60;;
15383;SDS011;7790;53.022;12.968;2023-03-07T21:06:20;25.00;;;18.33;;
15383;SDS011;7790;53.022;12.968;2023-03-07T21:10:21;23.70;;;16.87;;
15383;SDS011;7790;53.022;12.968;2023-03-07T21:14:21;22.93;;;16.17;;
15383;SDS011;7790;53.022;12.968;2023-03-07T21:18:25;22.30;;;15.20;;
15383;SDS011;7790;53.022;12.968;2023-03-07T21:22:26;21.50;;;15.07;;
15383;SDS011;7790;53.022;12.968;2023-03-07T21:26:28;20.60;;;14.53;;
15383;SDS011;7790;53.022;12.968;2023-03-07T21:30:31;19.33;;;13.97;;
15383;SDS011;7790;53.022;12.968;2023-03-07T21:34:32;19.50;;;12.70;;
15383;SDS011;7790;53.022;12.968;2023-03-07T21:38:33;18.37;;;12.63;;
15383;SDS011;7790;53.022;12.968;2023-03-07T21:42:36;16.53;;;11.60;;
15383;SDS011;7790;53.022;12.968;2023-03-07T21:46:36;17.83;;;12.73;;
15383;SDS011;7790;53.022;12.968;2023-03-07T21:50:40;16.20;;;11.83;;
15383;SDS011;7790;53.022;12.968;2023-03-07T21:54:51;12.80;;;9.77;;
15383;SDS011;7790;53.022;12.968;2023-03-07T21:58:52;15.30;;;10.87;;
15383;SDS011;7790;53.022;12.968;2023-03-07T22:02:52;12.53;;;9.60;;
15383;SDS011;7790;53.022;12.968;2023-03-07T22:06:53;13.87;;;9.60;;
15383;SDS011;7790;53.022;12.968;2023-03-07T22:10:58;13.73;;;9.83;;
15383;SDS011;7790;53.022;12.968;2023-03-07T22:15:00;12.33;;;9.07;;
15383;SDS011;7790;53.022;12.968;2023-03-07T22:19:01;12.30;;;9.20;;
15383;SDS011;7790;53.022;12.968;2023-03-07T22:23:03;11.40;;;7.60;;
15383;SDS011;7790;53.022;12.968;2023-03-07T22:27:03;10.77;;;8.40;;
15383;SDS011;7790;53.022;12.968;2023-03-07T22:31:07;11.47;;;7.87;;
15383;SDS011;7790;53.022;12.968;2023-03-07T22:35:10;9.73;;;7.60;;
15383;SDS011;7790;53.022;12.968;2023-03-07T22:39:11;12.03;;;8.13;;
15383;SDS011;7790;53.022;12.968;2023-03-07T22:43:12;9.90;;;7.20;;
15383;SDS011;7790;53.022;12.968;2023-03-07T22:47:13;7.90;;;6.57;;
15383;SDS011;7790;53.022;12.968;2023-03-07T22:51:14;10.67;;;7.43;;
15383;SDS011;7790;53.022;12.968;2023-03-07T22:55:19;9.63;;;6.60;;
15383;SDS011;7790;53.022;12.968;2023-03-07T22:59:20;8.50;;;6.57;;
15383;SDS011;7790;53.022;12.968;2023-03-07T23:03:21;6.97;;;5.60;;
15383;SDS011;7790;53.022;12.968;2023-03-07T23:07:22;8.70;;;5.60;;
15383;SDS011;7790;53.022;12.968;2023-03-07T23:11:23;6.60;;;5.30;;
15383;SDS011;7790;53.022;12.968;2023-03-07T23:15:25;6.43;;;4.90;;
15383;SDS011;7790;53.022;12.968;2023-03-07T23:19:26;5.47;;;4.90;;
15383;SDS011;7790;53.022;12.968;2023-03-07T23:23:27;7.20;;;5.03;;
15383;SDS011;7790;53.022;12.968;2023-03-07T23:27:27;7.00;;;4.70;;
15383;SDS011;7790;53.022;12.968;2023-03-07T23:31:29;5.40;;;4.33;;
15383;SDS011;7790;53.022;12.968;2023-03-07T23:35:36;6.73;;;5.13;;
15383;SDS011;7790;53.022;12.968;2023-03-07T23:39:36;6.40;;;4.30;;
15383;SDS011;7790;53.022;12.968;2023-03-07T23:43:37;5.83;;;4.27;;
15383;SDS011;7790;53.022;12.968;2023-03-07T23:47:38;5.10;;;4.13;;
15383;SDS011;7790;53.022;12.968;2023-03-07T23:51:39;6.17;;;4.50;;
15383;SDS011;7790;53.022;12.968;2023-03-07T23:55:40;5.30;;;3.93;;
15383;SDS011;7790;53.022;12.968;2023-03-07T23:59:42;3.80;;;3.40;;
